createdAt,value
2022-09-02T00:02:02.279Z,18.35
2022-09-02T00:04:32.229Z,18.36
2022-09-02T00:07:02.253Z,18.29
2022-09-02T00:09:34.176Z,18.32
2022-09-02T00:12:04.408Z,18.36
2022-09-02T00:14:39.114Z,18.42
2022-09-02T00:17:09.416Z,18.46
2022-09-02T00:19:39.818Z,18.43
2022-09-02T00:22:09.769Z,18.35
2022-09-02T00:24:41.093Z,18.34
2022-09-02T00:27:11.031Z,18.27
2022-09-02T00:29:41.025Z,18.22
2022-09-02T00:32:11.036Z,18.20
2022-09-02T00:34:41.133Z,18.22
2022-09-02T00:37:11.333Z,18.25
2022-09-02T00:39:43.429Z,18.24
2022-09-02T00:42:13.690Z,18.24
2022-09-02T00:44:44.089Z,18.24
2022-09-02T00:47:15.773Z,18.27
2022-09-02T00:52:29.789Z,18.23
2022-09-02T00:55:04.553Z,18.25
2022-09-02T00:57:42.156Z,18.24
2022-09-02T01:00:17.753Z,18.25
2022-09-02T01:02:52.245Z,18.25
2022-09-02T01:05:25.235Z,18.25
2022-09-02T01:07:57.854Z,18.22
2022-09-02T01:10:30.913Z,18.16
2022-09-02T01:13:07.434Z,18.12
2022-09-02T01:15:39.165Z,18.13
2022-09-02T01:18:12.817Z,18.16
2022-09-02T01:20:42.973Z,18.15
2022-09-02T01:23:17.414Z,18.14
2022-09-02T01:25:48.762Z,18.11
2022-09-02T01:28:21.470Z,18.06
2022-09-02T01:30:54.954Z,18.04
2022-09-02T01:33:26.513Z,18.11
2022-09-02T01:35:56.749Z,18.13
2022-09-02T01:38:28.613Z,18.10
2022-09-02T01:40:58.514Z,18.15
2022-09-02T01:43:30.245Z,18.11
2022-09-02T01:46:02.033Z,18.10
2022-09-02T01:48:31.938Z,18.08
2022-09-02T01:51:06.541Z,18.10
2022-09-02T01:53:37.998Z,18.12
2022-09-02T01:56:08.481Z,18.13
2022-09-02T01:58:38.453Z,18.15
2022-09-02T02:01:08.775Z,18.17
2022-09-02T02:03:40.392Z,18.14
2022-09-02T02:06:16.750Z,18.14
2022-09-02T02:08:48.393Z,18.15
2022-09-02T02:11:23.633Z,18.16
2022-09-02T02:13:54.092Z,18.18
2022-09-02T02:16:24.119Z,18.18
2022-09-02T02:18:54.151Z,18.22
2022-09-02T02:21:24.053Z,18.24
2022-09-02T02:23:55.772Z,18.26
2022-09-02T02:26:25.813Z,18.30
2022-09-02T02:28:55.830Z,18.28
2022-09-02T02:31:26.233Z,18.32
2022-09-02T02:33:57.810Z,18.34
2022-09-02T02:36:27.689Z,18.38
2022-09-02T02:38:59.209Z,18.33
2022-09-02T02:41:30.050Z,18.27
2022-09-02T02:44:00.037Z,18.27
2022-09-02T02:46:31.674Z,18.29
2022-09-02T02:49:03.098Z,18.33
2022-09-02T02:51:33.173Z,18.24
2022-09-02T02:54:05.535Z,18.22
2022-09-02T02:56:36.010Z,18.26
2022-09-02T02:59:05.880Z,18.25
2022-09-02T03:01:36.876Z,18.22
2022-09-02T03:04:07.654Z,18.21
2022-09-02T03:06:37.629Z,18.24
2022-09-02T03:09:09.182Z,18.23
2022-09-02T03:11:38.991Z,18.25
2022-09-02T03:14:09.292Z,18.27
2022-09-02T03:16:39.381Z,18.27
2022-09-02T03:19:09.416Z,18.23
2022-09-02T03:21:39.463Z,18.22
2022-09-02T03:24:12.353Z,18.24
2022-09-02T03:26:46.842Z,18.27
2022-09-02T03:29:16.750Z,18.26
2022-09-02T03:31:46.786Z,18.29
2022-09-02T03:34:17.013Z,18.29
2022-09-02T03:36:46.950Z,18.27
2022-09-02T03:39:18.351Z,18.26
2022-09-02T03:41:50.609Z,18.26
2022-09-02T03:44:20.032Z,18.26
2022-09-02T03:46:50.624Z,18.27
2022-09-02T03:49:20.691Z,18.26
2022-09-02T03:53:21.909Z,18.29
2022-09-02T03:55:52.421Z,18.24
2022-09-02T03:58:23.509Z,18.24
2022-09-02T04:00:54.597Z,18.24
2022-09-02T04:03:24.799Z,18.22
2022-09-02T04:05:54.990Z,18.20
2022-09-02T04:08:27.330Z,18.22
2022-09-02T04:10:57.549Z,18.17
2022-09-02T04:13:27.431Z,18.20
2022-09-02T04:16:01.199Z,18.25
2022-09-02T04:18:33.230Z,18.25
2022-09-02T04:21:03.529Z,18.23
2022-09-02T04:23:35.922Z,18.26
2022-09-02T04:26:08.793Z,18.33
2022-09-02T04:28:38.831Z,18.33
2022-09-02T04:31:11.092Z,18.29
2022-09-02T04:33:41.609Z,18.29
2022-09-02T04:36:14.742Z,18.29
2022-09-02T04:38:47.791Z,18.33
2022-09-02T04:41:21.452Z,18.30
2022-09-02T04:43:51.779Z,18.32
2022-09-02T04:46:33.853Z,18.35
2022-09-02T04:49:05.056Z,18.35
2022-09-02T04:51:35.057Z,18.30
2022-09-02T04:54:06.653Z,18.28
2022-09-02T04:56:38.013Z,18.27
2022-09-02T04:59:09.069Z,18.27
2022-09-02T05:01:40.342Z,18.29
2022-09-02T05:04:11.462Z,18.31
2022-09-02T05:06:44.335Z,18.29
2022-09-02T05:09:16.113Z,18.31
2022-09-02T05:11:48.389Z,18.28
2022-09-02T05:14:17.850Z,18.26
2022-09-02T05:16:47.592Z,18.27
2022-09-02T05:19:18.561Z,18.28
2022-09-02T05:21:48.649Z,18.30
2022-09-02T05:24:23.310Z,18.28
2022-09-02T05:26:56.373Z,18.25
2022-09-02T05:29:26.941Z,18.25
2022-09-02T05:31:56.878Z,18.25
2022-09-02T05:34:27.070Z,18.29
2022-09-02T05:36:57.411Z,18.33
2022-09-02T05:39:31.214Z,18.30
2022-09-02T05:42:01.633Z,18.30
2022-09-02T05:44:31.733Z,18.31
2022-09-02T05:47:01.733Z,18.33
2022-09-02T05:49:31.569Z,18.33
2022-09-02T05:52:04.417Z,18.35
2022-09-02T05:54:39.387Z,18.35
2022-09-02T05:57:13.210Z,18.32
2022-09-02T05:59:44.651Z,18.29
2022-09-02T06:02:30.762Z,18.35
2022-09-02T06:05:00.693Z,18.44
2022-09-02T06:07:30.533Z,18.48
2022-09-02T06:10:02.354Z,18.50
2022-09-02T06:12:33.511Z,18.51
2022-09-02T06:15:04.114Z,18.47
2022-09-02T06:17:33.973Z,18.44
2022-09-02T06:20:04.728Z,18.47
2022-09-02T06:22:34.561Z,18.52
2022-09-02T06:25:06.453Z,18.50
2022-09-02T06:27:36.693Z,18.51
2022-09-02T06:30:07.811Z,18.59
2022-09-02T06:32:37.641Z,18.59
2022-09-02T06:35:11.170Z,18.61
2022-09-02T06:37:43.431Z,18.65
2022-09-02T06:40:15.071Z,18.67
2022-09-02T06:42:45.014Z,18.71
2022-09-02T06:45:14.933Z,18.84
2022-09-02T06:47:46.187Z,18.94
2022-09-02T06:53:21.604Z,18.88
2022-09-02T06:55:51.890Z,18.96
2022-09-02T06:58:22.153Z,19.06
2022-09-02T07:00:52.010Z,19.11
2022-09-02T07:03:39.077Z,19.11
2022-09-02T07:06:12.174Z,19.08
2022-09-02T07:08:45.870Z,19.04
2022-09-02T07:11:21.121Z,19.06
2022-09-02T07:13:52.213Z,19.16
2022-09-02T07:16:26.948Z,19.13
2022-09-02T07:18:57.893Z,18.98
2022-09-02T07:21:27.770Z,19.07
2022-09-02T07:24:00.909Z,19.16
2022-09-02T07:26:31.788Z,19.18
2022-09-02T07:29:01.718Z,19.18
2022-09-02T07:31:31.814Z,19.22
2022-09-02T07:34:01.913Z,19.28
2022-09-02T07:36:31.834Z,19.42
2022-09-02T07:39:03.281Z,19.55
2022-09-02T07:41:33.354Z,19.56
2022-09-02T07:44:04.593Z,19.74
2022-09-02T07:46:34.630Z,19.65
2022-09-02T07:49:09.398Z,19.64
2022-09-02T07:51:43.434Z,19.54
2022-09-02T07:54:16.090Z,19.50
2022-09-02T07:56:46.446Z,19.60
2022-09-02T07:59:16.330Z,19.61
2022-09-02T08:01:47.916Z,19.66
2022-09-02T08:04:19.489Z,19.81
2022-09-02T08:06:49.570Z,19.99
2022-09-02T08:09:21.190Z,20.24
2022-09-02T08:11:53.333Z,20.25
2022-09-02T08:14:26.352Z,20.23
2022-09-02T08:16:57.876Z,20.15
2022-09-02T08:19:28.939Z,20.19
2022-09-02T08:22:03.870Z,20.31
2022-09-02T08:24:36.353Z,20.39
2022-09-02T08:27:06.631Z,20.47
2022-09-02T08:29:36.503Z,20.45
2022-09-02T08:32:07.540Z,20.44
2022-09-02T08:34:37.438Z,20.38
2022-09-02T08:37:07.618Z,20.51
2022-09-02T08:39:39.076Z,20.62
2022-09-02T08:42:20.951Z,20.56
2022-09-02T08:44:55.659Z,20.44
2022-09-02T08:47:31.295Z,20.57
2022-09-02T08:50:07.731Z,20.66
2022-09-02T08:52:51.391Z,20.78
2022-09-02T08:55:28.840Z,20.71
2022-09-02T08:57:58.981Z,20.71
2022-09-02T09:00:29.484Z,20.88
2022-09-02T09:03:06.655Z,20.78
2022-09-02T09:05:48.135Z,20.67
2022-09-02T09:08:30.260Z,20.71
2022-09-02T09:11:05.056Z,20.72
2022-09-02T09:14:09.132Z,20.82
2022-09-02T09:16:52.629Z,20.86
2022-09-02T09:19:37.161Z,20.86
2022-09-02T09:22:07.151Z,20.92
2022-09-02T09:24:42.632Z,21.18
2022-09-02T09:27:18.852Z,21.49
2022-09-02T09:29:49.472Z,21.54
2022-09-02T09:32:27.897Z,21.60
2022-09-02T09:35:03.655Z,21.58
2022-09-02T09:37:39.027Z,21.63
2022-09-02T09:40:33.702Z,21.79
2022-09-02T09:43:17.206Z,21.77
2022-09-02T09:45:49.609Z,21.76
2022-09-02T09:48:30.231Z,21.63
2022-09-02T09:53:26.471Z,21.65
2022-09-02T09:55:58.553Z,21.66
2022-09-02T09:58:34.616Z,21.66
2022-09-02T10:01:15.461Z,21.56
2022-09-02T10:03:51.331Z,21.52
2022-09-02T10:06:26.032Z,21.50
2022-09-02T10:09:00.517Z,21.42
2022-09-02T10:11:32.402Z,21.29
2022-09-02T10:14:05.115Z,21.25
2022-09-02T10:16:53.256Z,21.19
2022-09-02T10:19:32.963Z,21.24
2022-09-02T10:22:39.171Z,21.25
2022-09-02T10:25:34.534Z,21.24
2022-09-02T10:28:16.272Z,21.23
2022-09-02T10:30:52.431Z,21.22
2022-09-02T10:33:38.596Z,21.19
2022-09-02T10:36:23.321Z,21.07
2022-09-02T10:38:55.152Z,21.04
2022-09-02T10:44:33.193Z,20.05
2022-09-02T10:47:06.104Z,19.88
2022-09-02T10:50:00.745Z,19.73
2022-09-02T10:52:47.851Z,19.48
2022-09-02T10:55:30.593Z,19.33
2022-09-02T10:58:12.352Z,19.15
2022-09-02T11:00:44.664Z,19.02
2022-09-02T11:03:21.177Z,18.88
2022-09-02T11:05:54.359Z,18.84
2022-09-02T11:08:35.915Z,18.69
2022-09-02T11:11:13.714Z,18.53
2022-09-02T11:14:00.574Z,18.46
2022-09-02T11:19:20.519Z,18.25
2022-09-02T11:21:59.902Z,18.23
2022-09-02T11:24:37.515Z,18.22
2022-09-02T11:27:38.976Z,18.13
2022-09-02T11:30:15.461Z,18.11
2022-09-02T11:32:52.053Z,18.09
2022-09-02T11:35:27.773Z,18.03
2022-09-02T11:38:03.245Z,18.10
2022-09-02T11:40:40.965Z,18.18
2022-09-02T11:43:29.215Z,18.24
2022-09-02T11:46:31.526Z,18.27
2022-09-02T11:49:34.730Z,18.23
2022-09-02T11:52:28.442Z,18.14
2022-09-02T11:55:10.675Z,18.11
2022-09-02T11:57:41.834Z,18.13
2022-09-02T12:00:36.189Z,18.24
2022-09-02T12:03:39.145Z,18.26
2022-09-02T12:06:17.578Z,18.24
2022-09-02T12:09:11.242Z,18.31
2022-09-02T12:11:55.351Z,18.22
2022-09-02T12:15:08.747Z,18.07
2022-09-02T12:17:42.950Z,18.06
2022-09-02T12:21:08.024Z,18.16
2022-09-02T12:24:13.455Z,18.33
2022-09-02T12:27:10.531Z,18.39
2022-09-02T12:29:40.611Z,18.34
2022-09-02T12:32:12.071Z,18.36
2022-09-02T12:35:09.354Z,18.34
2022-09-02T12:37:58.474Z,18.33
2022-09-02T12:40:41.277Z,18.34
2022-09-02T12:43:28.176Z,18.37
2022-09-02T12:46:06.369Z,18.35
2022-09-02T12:48:44.636Z,18.32
2022-09-02T12:53:41.315Z,18.39
2022-09-02T12:56:23.835Z,18.44
2022-09-02T12:59:00.191Z,18.48
2022-09-02T13:01:46.626Z,18.51
2022-09-02T13:04:33.077Z,18.51
2022-09-02T13:08:06.516Z,18.62
2022-09-02T13:11:44.055Z,18.70
2022-09-02T13:14:56.696Z,18.78
2022-09-02T13:17:47.156Z,18.93
2022-09-02T13:21:01.715Z,19.04
2022-09-02T13:24:10.935Z,19.14
2022-09-02T13:27:27.584Z,19.21
2022-09-02T13:30:22.392Z,19.26
2022-09-02T13:33:01.764Z,19.29
2022-09-02T13:35:31.926Z,19.30
2022-09-02T13:38:03.195Z,19.35
2022-09-02T13:40:35.840Z,19.40
2022-09-02T13:43:18.456Z,19.42
2022-09-02T13:45:51.633Z,19.47
2022-09-02T13:48:24.392Z,19.43
2022-09-02T13:50:57.454Z,19.37
2022-09-02T13:56:31.141Z,19.40
2022-09-02T13:59:01.312Z,19.44
2022-09-02T14:01:35.824Z,19.42
2022-09-02T14:04:11.639Z,19.41
2022-09-02T14:06:46.553Z,19.40
2022-09-02T14:09:26.174Z,19.35
2022-09-02T14:11:57.591Z,19.42
2022-09-02T14:14:29.052Z,19.52
2022-09-02T14:17:25.937Z,19.50
2022-09-02T14:20:21.472Z,19.51
2022-09-02T14:22:59.743Z,19.54
2022-09-02T14:25:37.676Z,19.52
2022-09-02T14:28:20.298Z,19.51
2022-09-02T14:31:00.742Z,19.60
2022-09-02T14:33:42.975Z,19.62
2022-09-02T14:36:31.936Z,19.59
2022-09-02T14:39:15.961Z,19.61
2022-09-02T14:41:49.935Z,19.63
2022-09-02T14:44:25.982Z,19.62
2022-09-02T14:46:58.715Z,19.62
2022-09-02T14:49:33.256Z,19.58
2022-09-02T14:52:06.991Z,19.54
2022-09-02T14:54:40.080Z,19.43
2022-09-02T14:57:25.796Z,19.41
2022-09-02T14:59:56.061Z,19.36
2022-09-02T15:02:33.935Z,19.40
2022-09-02T15:05:08.808Z,19.34
2022-09-02T15:07:38.860Z,19.35
2022-09-02T15:10:11.176Z,19.45
2022-09-02T15:12:52.456Z,19.38
2022-09-02T15:15:22.971Z,19.37
2022-09-02T15:17:53.179Z,19.34
2022-09-02T15:20:25.012Z,19.39
2022-09-02T15:22:58.892Z,19.35
2022-09-02T15:25:28.932Z,19.34
2022-09-02T15:27:58.824Z,19.29
2022-09-02T15:30:28.855Z,19.30
2022-09-02T15:32:58.855Z,19.35
2022-09-02T15:35:30.316Z,19.40
2022-09-02T15:38:00.540Z,19.44
2022-09-02T15:40:32.035Z,19.32
2022-09-02T15:43:02.280Z,19.26
2022-09-02T15:45:32.325Z,19.23
2022-09-02T15:48:02.246Z,19.34
2022-09-02T15:53:21.169Z,19.53
2022-09-02T15:55:51.072Z,19.58
2022-09-02T15:58:21.016Z,19.60
2022-09-02T16:00:51.079Z,19.66
2022-09-02T16:03:21.074Z,19.72
2022-09-02T16:05:51.056Z,19.76
2022-09-02T16:08:22.449Z,19.79
2022-09-02T16:10:52.378Z,19.80
2022-09-02T16:13:22.342Z,19.82
2022-09-02T16:15:53.838Z,19.82
2022-09-02T16:18:23.685Z,19.79
2022-09-02T16:20:53.636Z,19.79
2022-09-02T16:23:25.361Z,19.76
2022-09-02T16:26:15.173Z,19.73
2022-09-02T16:28:47.114Z,19.70
2022-09-02T16:31:19.450Z,19.69
2022-09-02T16:33:55.776Z,19.65
2022-09-02T16:36:26.899Z,19.64
2022-09-02T16:39:05.106Z,19.62
2022-09-02T16:41:38.030Z,19.58
2022-09-02T16:44:10.787Z,19.52
2022-09-02T16:46:42.245Z,19.42
2022-09-02T16:49:13.575Z,19.36
2022-09-02T16:51:43.587Z,19.28
2022-09-02T16:54:17.690Z,19.20
2022-09-02T16:56:51.514Z,19.12
2022-09-02T16:59:21.816Z,19.03
2022-09-02T17:01:51.816Z,18.97
2022-09-02T17:04:21.896Z,18.91
2022-09-02T17:06:51.875Z,18.83
2022-09-02T17:09:23.292Z,18.77
2022-09-02T17:11:54.092Z,18.78
2022-09-02T17:14:24.521Z,18.77
2022-09-02T17:16:54.627Z,18.62
2022-09-02T17:19:28.613Z,18.45
2022-09-02T17:22:02.136Z,18.45
2022-09-02T17:24:33.406Z,18.40
2022-09-02T17:27:03.964Z,18.39
2022-09-02T17:29:50.174Z,18.34
2022-09-02T17:32:21.010Z,18.32
2022-09-02T17:34:52.673Z,18.32
2022-09-02T17:37:23.515Z,18.32
2022-09-02T17:39:55.210Z,18.36
2022-09-02T17:42:24.055Z,18.33
2022-09-02T17:44:53.993Z,18.36
2022-09-02T17:47:25.153Z,18.39
2022-09-02T17:49:55.097Z,18.40
2022-09-02T17:52:26.613Z,18.41
2022-09-02T17:54:58.113Z,18.42
2022-09-02T17:57:49.056Z,18.41
2022-09-02T18:00:22.797Z,18.39
2022-09-02T18:03:14.653Z,18.35
2022-09-02T18:06:13.394Z,18.24
2022-09-02T18:08:52.953Z,18.26
2022-09-02T18:11:25.060Z,18.27
2022-09-02T18:14:15.973Z,18.29
2022-09-02T18:16:59.417Z,18.36
2022-09-02T18:19:46.957Z,18.37
2022-09-02T18:23:14.197Z,18.40
2022-09-02T18:25:53.356Z,18.35
2022-09-02T18:28:51.339Z,18.35
2022-09-02T18:31:45.217Z,18.37
2022-09-02T18:34:40.441Z,18.38
2022-09-02T18:37:21.757Z,18.41
2022-09-02T18:40:08.683Z,18.44
2022-09-02T18:42:52.504Z,18.48
2022-09-02T18:45:32.806Z,18.52
2022-09-02T18:48:09.343Z,18.57
2022-09-02T18:53:26.252Z,18.59
2022-09-02T18:55:57.056Z,18.57
2022-09-02T18:58:38.395Z,18.54
2022-09-02T19:01:16.811Z,18.57
2022-09-02T19:03:46.877Z,18.56
2022-09-02T19:06:21.778Z,18.49
2022-09-02T19:08:59.077Z,18.39
2022-09-02T19:11:29.235Z,18.38
2022-09-02T19:14:03.638Z,18.40
2022-09-02T19:16:37.231Z,18.38
2022-09-02T19:19:08.375Z,18.30
2022-09-02T19:21:41.996Z,18.28
2022-09-02T19:24:18.559Z,18.29
2022-09-02T19:26:48.607Z,18.32
2022-09-02T19:29:22.530Z,18.32
2022-09-02T19:31:55.873Z,18.34
2022-09-02T19:34:27.525Z,18.37
2022-09-02T19:36:58.939Z,18.39
2022-09-02T19:39:30.343Z,18.44
2022-09-02T19:42:01.743Z,18.50
2022-09-02T19:44:31.783Z,18.52
2022-09-02T19:47:49.721Z,18.52
2022-09-02T19:49:52.379Z,18.52
2022-09-02T19:52:22.487Z,18.55
2022-09-02T19:54:53.980Z,18.62
2022-09-02T19:57:23.737Z,18.66
2022-09-02T19:59:53.617Z,18.67
2022-09-02T20:02:23.707Z,18.68
2022-09-02T20:04:54.007Z,18.65
2022-09-02T20:07:23.939Z,18.61
2022-09-02T20:09:55.580Z,18.61
2022-09-02T20:12:25.507Z,18.58
2022-09-02T20:14:55.515Z,18.58
2022-09-02T20:17:30.360Z,18.62
2022-09-02T20:20:01.707Z,18.66
2022-09-02T20:22:33.075Z,18.69
2022-09-02T20:25:04.564Z,18.68
2022-09-02T20:27:55.134Z,18.68
2022-09-02T20:30:34.761Z,18.68
2022-09-02T20:33:17.816Z,18.65
2022-09-02T20:36:05.691Z,18.66
2022-09-02T20:39:12.599Z,18.70
2022-09-02T20:41:56.597Z,18.72
2022-09-02T20:44:44.757Z,18.70
2022-09-02T20:47:38.376Z,18.66
2022-09-02T20:50:33.591Z,18.62
2022-09-02T20:53:29.844Z,18.64
2022-09-02T20:56:06.282Z,18.65
2022-09-02T20:58:51.156Z,18.64
2022-09-02T21:01:28.336Z,18.59
2022-09-02T21:04:09.241Z,18.56
2022-09-02T21:06:44.079Z,18.55
2022-09-02T21:09:23.376Z,18.58
2022-09-02T21:12:01.059Z,18.62
2022-09-02T21:14:41.806Z,18.66
2022-09-02T21:17:16.572Z,18.65
2022-09-02T21:19:59.515Z,18.67
2022-09-02T21:22:36.818Z,18.66
2022-09-02T21:25:14.315Z,18.63
2022-09-02T21:27:52.893Z,18.60
2022-09-02T21:30:26.396Z,18.51
2022-09-02T21:33:00.456Z,18.42
2022-09-02T21:35:39.856Z,18.38
2022-09-02T21:38:16.228Z,18.38
2022-09-02T21:41:04.265Z,18.38
2022-09-02T21:43:52.315Z,18.37
2022-09-02T21:46:39.388Z,18.36
2022-09-02T21:49:27.653Z,18.33
2022-09-02T21:53:32.175Z,18.18
2022-09-02T21:56:26.213Z,18.11
2022-09-02T21:59:36.238Z,18.05
2022-09-02T22:02:15.341Z,17.99
2022-09-02T22:04:59.833Z,17.96
2022-09-02T22:07:39.376Z,17.91
2022-09-02T22:10:21.663Z,17.88
2022-09-02T22:12:53.146Z,17.91
2022-09-02T22:15:35.437Z,17.94
2022-09-02T22:18:16.375Z,17.95
2022-09-02T22:20:46.973Z,17.91
2022-09-02T22:23:26.638Z,17.87
2022-09-02T22:26:08.613Z,17.79
2022-09-02T22:28:46.422Z,17.83
2022-09-02T22:31:22.395Z,17.86
2022-09-02T22:33:59.097Z,17.75
2022-09-02T22:36:49.277Z,17.60
2022-09-02T22:39:20.323Z,17.56
2022-09-02T22:42:03.340Z,17.52
2022-09-02T22:44:59.077Z,17.45
2022-09-02T22:47:48.758Z,17.37
2022-09-02T22:50:42.237Z,17.29
2022-09-02T22:53:13.278Z,17.33
2022-09-02T22:55:59.042Z,17.36
2022-09-02T22:59:08.153Z,17.40
2022-09-02T23:01:54.007Z,17.44
2022-09-02T23:04:41.077Z,17.50
2022-09-02T23:07:14.076Z,17.53
2022-09-02T23:09:44.016Z,17.56
2022-09-02T23:12:29.139Z,17.58
2022-09-02T23:15:13.947Z,17.50
2022-09-02T23:17:58.859Z,17.36
2022-09-02T23:20:41.626Z,17.29
2022-09-02T23:23:25.397Z,17.23
2022-09-02T23:26:12.516Z,17.15
2022-09-02T23:29:17.554Z,17.11
2022-09-02T23:32:30.677Z,17.14
2022-09-02T23:35:20.598Z,17.17
2022-09-02T23:38:18.487Z,17.11
2022-09-02T23:40:56.196Z,16.98
2022-09-02T23:43:26.577Z,17.04
2022-09-02T23:45:57.753Z,17.05
2022-09-02T23:48:44.167Z,17.05
2022-09-02T23:51:23.690Z,17.03
2022-09-02T23:54:15.434Z,16.99
2022-09-02T23:57:02.957Z,16.91
